createdAt,value
2019-04-29T00:00:07.280Z,52.30
2019-04-29T00:01:01.314Z,52.29
2019-04-29T00:01:52.292Z,52.87
2019-04-29T00:02:42.354Z,52.69
2019-04-29T00:03:33.421Z,52.57
2019-04-29T00:04:24.385Z,52.62
2019-04-29T00:05:14.727Z,52.65
2019-04-29T00:06:05.286Z,52.60
2019-04-29T00:06:55.076Z,52.65
2019-04-29T00:07:46.424Z,52.56
2019-04-29T00:08:37.816Z,52.67
2019-04-29T00:09:30.878Z,52.65
2019-04-29T00:10:19.548Z,52.64
2019-04-29T00:11:09.927Z,52.65
2019-04-29T00:12:00.348Z,52.69
2019-04-29T00:12:51.580Z,52.77
2019-04-29T00:13:42.409Z,52.80
2019-04-29T00:14:32.220Z,52.92
2019-04-29T00:15:40.969Z,52.78
2019-04-29T00:16:38.792Z,52.91
2019-04-29T00:17:34.968Z,52.80
2019-04-29T00:18:30.701Z,52.87
2019-04-29T00:19:45.050Z,52.88
2019-04-29T00:20:44.799Z,52.89
2019-04-29T00:21:35.216Z,52.91
2019-04-29T00:22:26.062Z,52.90
2019-04-29T00:23:17.586Z,53.02
2019-04-29T00:24:08.451Z,53.12
2019-04-29T00:24:58.462Z,52.98
2019-04-29T00:25:49.296Z,52.90
2019-04-29T00:26:39.611Z,52.92
2019-04-29T00:27:29.772Z,52.87
2019-04-29T00:28:20.308Z,53.05
2019-04-29T00:29:11.295Z,52.94
2019-04-29T00:30:01.484Z,53.05
2019-04-29T00:30:52.031Z,53.08
2019-04-29T00:31:42.343Z,53.08
2019-04-29T00:32:32.723Z,53.05
2019-04-29T00:33:22.892Z,53.00
2019-04-29T00:34:13.800Z,53.14
2019-04-29T00:35:04.347Z,53.10
2019-04-29T00:35:55.053Z,53.15
2019-04-29T00:36:54.203Z,53.08
2019-04-29T00:38:01.787Z,53.00
2019-04-29T00:39:11.932Z,52.95
2019-04-29T00:40:21.691Z,52.94
2019-04-29T00:41:34.374Z,52.90
2019-04-29T00:42:41.184Z,52.89
2019-04-29T00:43:44.638Z,52.87
2019-04-29T00:44:34.912Z,53.10
2019-04-29T00:45:25.308Z,53.17
2019-04-29T00:46:15.880Z,53.35
2019-04-29T00:47:06.607Z,53.38
2019-04-29T00:47:56.510Z,53.47
2019-04-29T00:48:47.164Z,53.34
2019-04-29T00:49:37.280Z,53.47
2019-04-29T00:50:27.949Z,53.43
2019-04-29T00:51:18.284Z,53.48
2019-04-29T00:52:09.642Z,53.48
2019-04-29T00:52:59.558Z,53.35
2019-04-29T00:53:49.900Z,53.35
2019-04-29T00:54:43.596Z,53.47
2019-04-29T00:55:34.584Z,53.45
2019-04-29T00:56:25.355Z,53.47
2019-04-29T00:57:16.358Z,53.36
2019-04-29T00:58:06.539Z,53.42
2019-04-29T00:58:56.938Z,53.42
2019-04-29T00:59:47.711Z,53.75
2019-04-29T01:00:39.151Z,53.76
2019-04-29T01:01:29.307Z,53.66
2019-04-29T01:02:20.068Z,53.85
2019-04-29T01:03:10.438Z,53.86
2019-04-29T01:04:00.918Z,53.67
2019-04-29T01:04:52.789Z,53.75
2019-04-29T01:05:42.783Z,53.78
2019-04-29T01:06:32.951Z,53.81
2019-04-29T01:07:23.577Z,54.34
2019-04-29T01:08:15.004Z,53.95
2019-04-29T01:09:06.454Z,54.13
2019-04-29T01:09:56.710Z,54.10
2019-04-29T01:10:47.180Z,54.08
2019-04-29T01:11:38.247Z,54.20
2019-04-29T01:12:28.544Z,54.15
2019-04-29T01:13:18.381Z,54.44
2019-04-29T01:14:08.945Z,54.37
2019-04-29T01:14:59.665Z,54.24
2019-04-29T01:15:49.940Z,54.18
2019-04-29T01:16:40.469Z,54.26
2019-04-29T01:17:31.387Z,54.25
2019-04-29T01:18:22.105Z,54.30
2019-04-29T01:19:12.044Z,54.25
2019-04-29T01:20:02.244Z,54.21
2019-04-29T01:20:52.898Z,54.41
2019-04-29T01:21:43.121Z,54.32
2019-04-29T01:22:33.946Z,54.31
2019-04-29T01:23:24.220Z,54.55
2019-04-29T01:24:14.074Z,54.47
2019-04-29T01:25:04.600Z,54.55
2019-04-29T01:25:57.497Z,54.67
2019-04-29T01:27:05.837Z,54.72
2019-04-29T01:28:00.913Z,54.73
2019-04-29T01:28:53.007Z,54.57
2019-04-29T01:29:43.967Z,54.63
2019-04-29T01:31:07.378Z,54.76
2019-04-29T01:31:57.992Z,54.74
2019-04-29T01:32:48.236Z,54.72
2019-04-29T01:33:38.624Z,54.98
2019-04-29T01:34:32.389Z,54.80
2019-04-29T01:35:22.280Z,54.88
2019-04-29T01:36:45.218Z,54.81
2019-04-29T01:37:42.861Z,54.93
2019-04-29T01:38:33.267Z,54.80
2019-04-29T01:39:25.782Z,54.78
2019-04-29T01:40:26.904Z,54.78
2019-04-29T01:41:18.118Z,54.99
2019-04-29T01:42:23.706Z,55.03
2019-04-29T01:43:14.380Z,55.35
2019-04-29T01:44:06.169Z,55.09
2019-04-29T01:44:56.224Z,55.05
2019-04-29T01:45:46.395Z,55.21
2019-04-29T01:46:37.103Z,55.23
2019-04-29T01:47:27.597Z,55.25
2019-04-29T01:48:17.872Z,55.20
2019-04-29T01:49:08.292Z,55.14
2019-04-29T01:49:58.495Z,55.08
2019-04-29T01:50:48.722Z,55.07
2019-04-29T01:51:39.740Z,55.02
2019-04-29T01:52:30.083Z,55.15
2019-04-29T01:53:20.441Z,55.27
2019-04-29T01:54:10.867Z,55.27
2019-04-29T01:55:01.426Z,55.18
2019-04-29T01:55:52.112Z,55.16
2019-04-29T01:56:42.484Z,55.15
2019-04-29T01:57:32.971Z,55.17
2019-04-29T01:58:23.160Z,55.17
2019-04-29T01:59:13.993Z,55.40
2019-04-29T02:00:05.565Z,55.34
2019-04-29T02:00:55.440Z,55.29
2019-04-29T02:01:46.043Z,55.24
2019-04-29T02:02:36.243Z,55.23
2019-04-29T02:03:27.064Z,55.30
2019-04-29T02:04:18.868Z,55.27
2019-04-29T02:05:08.991Z,55.61
2019-04-29T02:05:59.985Z,55.58
2019-04-29T02:06:50.746Z,55.54
2019-04-29T02:07:41.189Z,55.40
2019-04-29T02:08:31.581Z,55.34
2019-04-29T02:09:31.020Z,55.33
2019-04-29T02:10:25.764Z,55.43
2019-04-29T02:11:16.496Z,55.38
2019-04-29T02:12:06.755Z,55.42
2019-04-29T02:12:56.920Z,55.51
2019-04-29T02:13:48.153Z,55.46
2019-04-29T02:14:39.320Z,55.41
2019-04-29T02:15:30.479Z,55.36
2019-04-29T02:16:21.554Z,55.40
2019-04-29T02:17:11.640Z,55.46
2019-04-29T02:18:02.744Z,55.66
2019-04-29T02:18:52.969Z,55.56
2019-04-29T02:19:43.267Z,55.70
2019-04-29T02:20:34.417Z,55.67
2019-04-29T02:21:25.620Z,55.92
2019-04-29T02:22:47.272Z,55.77
2019-04-29T02:23:45.401Z,55.74
2019-04-29T02:24:38.608Z,55.60
2019-04-29T02:25:33.967Z,55.85
2019-04-29T02:26:24.035Z,56.08
2019-04-29T02:27:14.127Z,55.97
2019-04-29T02:28:04.175Z,56.01
2019-04-29T02:28:54.616Z,55.99
2019-04-29T02:29:45.125Z,55.90
2019-04-29T02:30:42.829Z,55.90
2019-04-29T02:31:39.436Z,55.96
2019-04-29T02:32:30.065Z,56.01
2019-04-29T02:33:20.313Z,56.32
2019-04-29T02:34:10.544Z,56.23
2019-04-29T02:35:01.935Z,56.25
2019-04-29T02:35:52.953Z,56.15
2019-04-29T02:36:43.149Z,56.16
2019-04-29T02:37:35.464Z,56.44
2019-04-29T02:38:42.226Z,56.33
2019-04-29T02:39:40.505Z,56.26
2019-04-29T02:40:36.005Z,56.35
2019-04-29T02:41:47.680Z,56.25
2019-04-29T02:42:47.583Z,56.41
2019-04-29T02:43:37.965Z,56.62
2019-04-29T02:44:28.475Z,56.47
2019-04-29T02:45:21.335Z,56.42
2019-04-29T02:46:11.749Z,56.40
2019-04-29T02:47:01.888Z,56.43
2019-04-29T02:47:52.362Z,56.51
2019-04-29T02:48:43.042Z,56.72
2019-04-29T02:49:33.347Z,56.69
2019-04-29T02:50:23.446Z,56.65
2019-04-29T02:51:14.510Z,56.62
2019-04-29T02:52:04.769Z,56.59
2019-04-29T02:52:55.113Z,56.67
2019-04-29T02:53:45.662Z,56.65
2019-04-29T02:54:37.302Z,56.61
2019-04-29T02:55:33.869Z,56.60
2019-04-29T02:56:23.789Z,56.79
2019-04-29T02:57:19.860Z,56.75
2019-04-29T02:58:28.245Z,57.05
2019-04-29T02:59:19.831Z,57.01
2019-04-29T03:00:26.057Z,57.16
2019-04-29T03:01:32.329Z,57.09
2019-04-29T03:02:37.133Z,57.17
2019-04-29T03:03:53.713Z,57.13
2019-04-29T03:05:02.058Z,57.13
2019-04-29T03:05:57.553Z,57.31
2019-04-29T03:06:47.941Z,57.16
2019-04-29T03:07:38.950Z,57.11
2019-04-29T03:08:29.350Z,57.59
2019-04-29T03:09:19.348Z,57.77
2019-04-29T03:10:09.687Z,57.90
2019-04-29T03:11:00.076Z,57.57
2019-04-29T03:11:50.307Z,57.48
2019-04-29T03:12:40.768Z,57.57
2019-04-29T03:13:32.794Z,57.48
2019-04-29T03:14:24.680Z,57.62
2019-04-29T03:15:23.050Z,57.50
2019-04-29T03:16:12.928Z,57.85
2019-04-29T03:17:03.762Z,57.78
2019-04-29T03:17:53.595Z,57.77
2019-04-29T03:18:46.985Z,57.68
2019-04-29T03:19:37.563Z,57.66
2019-04-29T03:20:53.576Z,57.62
2019-04-29T03:21:49.715Z,57.68
2019-04-29T03:22:40.186Z,57.75
2019-04-29T03:23:30.748Z,57.65
2019-04-29T03:24:21.483Z,57.82
2019-04-29T03:25:11.601Z,57.65
2019-04-29T03:26:02.647Z,57.69
2019-04-29T03:26:53.659Z,57.81
2019-04-29T03:27:44.415Z,57.79
2019-04-29T03:28:34.587Z,57.81
2019-04-29T03:29:25.353Z,57.86
2019-04-29T03:30:15.726Z,57.83
2019-04-29T03:31:05.923Z,57.71
2019-04-29T03:31:56.886Z,57.68
2019-04-29T03:32:47.491Z,57.65
2019-04-29T03:33:38.053Z,57.78
2019-04-29T03:34:29.033Z,57.99
2019-04-29T03:35:20.128Z,58.22
2019-04-29T03:36:10.608Z,58.12
2019-04-29T03:37:01.534Z,57.92
2019-04-29T03:37:52.349Z,57.98
2019-04-29T03:38:42.144Z,57.93
2019-04-29T03:39:32.555Z,58.10
2019-04-29T03:40:23.351Z,58.03
2019-04-29T03:41:13.569Z,57.97
2019-04-29T03:42:07.179Z,57.94
2019-04-29T03:42:54.500Z,57.91
2019-04-29T03:43:44.888Z,57.94
2019-04-29T03:44:35.517Z,57.96
2019-04-29T03:45:25.880Z,57.98
2019-04-29T03:46:16.839Z,57.99
2019-04-29T03:47:07.638Z,57.97
2019-04-29T03:47:58.219Z,58.00
2019-04-29T03:48:48.721Z,58.27
2019-04-29T03:49:38.851Z,58.29
2019-04-29T03:50:29.297Z,58.55
2019-04-29T03:51:20.095Z,58.74
2019-04-29T03:52:10.779Z,58.59
2019-04-29T03:53:00.632Z,58.60
2019-04-29T03:53:51.461Z,58.72
2019-04-29T03:54:42.128Z,58.87
2019-04-29T03:55:39.828Z,59.26
2019-04-29T03:56:22.521Z,59.10
2019-04-29T03:57:12.761Z,59.25
2019-04-29T03:58:03.574Z,59.28
2019-04-29T03:58:53.335Z,59.40
2019-04-29T03:59:43.721Z,59.65
2019-04-29T04:00:34.231Z,59.84
2019-04-29T04:01:44.513Z,59.93
2019-04-29T04:02:45.832Z,60.02
2019-04-29T04:03:41.249Z,60.23
2019-04-29T04:04:50.171Z,60.50
2019-04-29T04:06:06.120Z,60.92
2019-04-29T04:07:15.818Z,60.82
2019-04-29T04:08:26.257Z,60.86
2019-04-29T04:09:19.516Z,61.00
2019-04-29T04:10:09.336Z,61.33
2019-04-29T04:10:59.622Z,61.33
2019-04-29T04:11:51.107Z,61.50
2019-04-29T04:12:41.340Z,61.55
2019-04-29T04:13:32.228Z,61.59
2019-04-29T04:14:22.197Z,62.00
2019-04-29T04:15:12.409Z,62.21
2019-04-29T04:16:02.969Z,62.22
2019-04-29T04:17:28.435Z,62.09
2019-04-29T04:18:25.840Z,62.09
2019-04-29T04:19:16.152Z,62.33
2019-04-29T04:20:06.780Z,62.26
2019-04-29T04:20:57.427Z,62.42
2019-04-29T04:21:47.811Z,62.65
2019-04-29T04:22:48.318Z,62.66
2019-04-29T04:23:38.511Z,62.74
2019-04-29T04:24:28.659Z,62.88
2019-04-29T04:25:18.862Z,63.19
2019-04-29T04:26:09.230Z,63.17
2019-04-29T04:26:59.721Z,63.21
2019-04-29T04:27:50.336Z,63.24
2019-04-29T04:28:41.043Z,63.30
2019-04-29T04:29:31.690Z,63.38
2019-04-29T04:30:22.586Z,63.54
2019-04-29T04:31:13.776Z,63.80
2019-04-29T04:32:04.371Z,63.74
2019-04-29T04:32:54.850Z,63.95
2019-04-29T04:33:46.135Z,63.83
2019-04-29T04:34:36.456Z,63.90
2019-04-29T04:35:27.292Z,64.38
2019-04-29T04:36:17.528Z,64.29
2019-04-29T04:37:08.222Z,64.28
2019-04-29T04:37:58.462Z,64.95
2019-04-29T04:38:48.559Z,64.88
2019-04-29T04:39:38.875Z,64.78
2019-04-29T04:40:35.238Z,64.77
2019-04-29T04:41:26.018Z,64.88
2019-04-29T04:42:16.963Z,65.03
2019-04-29T04:43:07.412Z,65.10
2019-04-29T04:43:57.670Z,65.19
2019-04-29T04:44:48.760Z,65.32
2019-04-29T04:45:39.733Z,65.48
2019-04-29T04:46:30.097Z,65.37
2019-04-29T04:47:20.383Z,65.35
2019-04-29T04:48:10.470Z,65.46
2019-04-29T04:49:00.773Z,65.41
2019-04-29T04:49:51.432Z,65.38
2019-04-29T04:50:41.686Z,65.51
2019-04-29T04:51:32.488Z,66.08
2019-04-29T04:52:22.768Z,65.69
2019-04-29T04:53:13.627Z,65.77
2019-04-29T04:54:03.915Z,65.71
2019-04-29T04:54:54.825Z,65.70
2019-04-29T04:55:45.405Z,65.73
2019-04-29T04:56:36.256Z,65.77
2019-04-29T04:57:26.412Z,65.88
2019-04-29T04:58:17.934Z,65.97
2019-04-29T04:59:08.269Z,66.00
2019-04-29T04:59:58.525Z,66.08
2019-04-29T05:00:49.545Z,66.17
2019-04-29T05:01:40.230Z,66.17
2019-04-29T05:02:30.392Z,66.25
2019-04-29T05:03:21.690Z,66.34
2019-04-29T05:04:12.247Z,66.48
2019-04-29T05:05:03.006Z,66.50
2019-04-29T05:05:54.047Z,66.60
2019-04-29T05:06:44.324Z,66.64
2019-04-29T05:07:35.027Z,66.68
2019-04-29T05:08:24.929Z,66.74
2019-04-29T05:09:15.463Z,66.82
2019-04-29T05:10:06.702Z,66.90
2019-04-29T05:10:57.218Z,66.90
2019-04-29T05:11:48.328Z,67.09
2019-04-29T05:12:39.411Z,67.09
2019-04-29T05:13:30.533Z,67.11
2019-04-29T05:14:20.952Z,67.31
2019-04-29T05:15:11.195Z,67.52
2019-04-29T05:16:01.963Z,67.50
2019-04-29T05:16:52.324Z,67.49
2019-04-29T05:17:42.362Z,67.56
2019-04-29T05:18:33.207Z,67.70
2019-04-29T05:19:24.038Z,67.79
2019-04-29T05:20:14.723Z,67.91
2019-04-29T05:21:05.604Z,68.05
2019-04-29T05:21:56.529Z,68.26
2019-04-29T05:22:58.666Z,68.90
2019-04-29T05:23:48.844Z,68.74
2019-04-29T05:24:39.503Z,68.55
2019-04-29T05:25:31.316Z,68.41
2019-04-29T05:26:21.593Z,68.46
2019-04-29T05:27:13.396Z,68.48
2019-04-29T05:28:04.172Z,68.47
2019-04-29T05:28:54.625Z,68.48
2019-04-29T05:29:44.824Z,68.51
2019-04-29T05:30:36.131Z,68.73
2019-04-29T05:31:26.049Z,69.02
2019-04-29T05:32:16.342Z,68.97
2019-04-29T05:33:06.962Z,68.92
2019-04-29T05:33:57.625Z,69.00
2019-04-29T05:34:48.511Z,69.10
2019-04-29T05:35:56.842Z,69.16
2019-04-29T05:36:51.488Z,69.26
2019-04-29T05:37:52.795Z,69.29
2019-04-29T05:38:55.927Z,69.34
2019-04-29T05:39:46.439Z,69.56
2019-04-29T05:40:39.788Z,69.91
2019-04-29T05:41:34.338Z,69.87
2019-04-29T05:42:20.773Z,69.95
2019-04-29T05:43:11.446Z,69.95
2019-04-29T05:44:30.854Z,70.01
2019-04-29T05:45:31.974Z,70.06
2019-04-29T05:46:51.168Z,70.27
2019-04-29T05:47:45.337Z,70.30
2019-04-29T05:48:35.966Z,70.44
2019-04-29T05:49:30.927Z,70.54
2019-04-29T05:50:33.789Z,70.81
2019-04-29T05:51:42.677Z,71.14
2019-04-29T05:52:40.890Z,71.05
2019-04-29T05:53:47.869Z,71.06
2019-04-29T05:54:35.144Z,71.16
2019-04-29T05:55:25.828Z,71.30
2019-04-29T05:56:16.091Z,71.52
2019-04-29T05:57:06.273Z,71.39
2019-04-29T05:58:10.547Z,71.53
2019-04-29T05:59:00.650Z,71.68
2019-04-29T05:59:51.530Z,72.31
2019-04-29T06:00:44.475Z,71.80
2019-04-29T06:01:34.813Z,71.76
2019-04-29T06:02:33.411Z,71.70
2019-04-29T06:03:15.903Z,71.61
2019-04-29T06:04:06.617Z,71.59
2019-04-29T06:04:57.639Z,71.57
2019-04-29T06:05:48.658Z,71.57
2019-04-29T06:06:38.964Z,71.71
2019-04-29T06:07:29.721Z,71.68
2019-04-29T06:08:20.528Z,71.66
2019-04-29T06:09:16.944Z,71.70
2019-04-29T06:10:01.407Z,71.68
2019-04-29T06:10:53.304Z,71.71
2019-04-29T06:11:45.490Z,71.98
2019-04-29T06:12:36.433Z,71.95
2019-04-29T06:13:27.627Z,71.95
2019-04-29T06:14:22.065Z,71.93
2019-04-29T06:15:11.263Z,72.15
2019-04-29T06:16:01.131Z,72.84
2019-04-29T06:16:52.952Z,72.46
2019-04-29T06:17:44.707Z,72.50
2019-04-29T06:18:33.746Z,72.41
2019-04-29T06:19:23.997Z,72.25
2019-04-29T06:20:17.993Z,72.20
2019-04-29T06:21:09.341Z,72.17
2019-04-29T06:21:55.395Z,72.03
2019-04-29T06:22:46.343Z,72.04
2019-04-29T06:23:37.351Z,72.13
2019-04-29T06:24:28.004Z,72.22
2019-04-29T06:25:19.204Z,72.67
2019-04-29T06:26:10.225Z,72.53
2019-04-29T06:27:01.799Z,72.41
2019-04-29T06:27:52.414Z,72.36
2019-04-29T06:28:43.123Z,72.37
2019-04-29T06:29:33.956Z,72.47
2019-04-29T06:30:24.947Z,72.42
2019-04-29T06:31:15.577Z,72.30
2019-04-29T06:32:05.775Z,72.18
2019-04-29T06:32:56.661Z,72.16
2019-04-29T06:33:47.341Z,72.46
2019-04-29T06:34:40.192Z,72.33
2019-04-29T06:35:29.773Z,72.31
2019-04-29T06:36:20.222Z,72.50
2019-04-29T06:37:11.307Z,72.46
2019-04-29T06:38:01.812Z,72.43
2019-04-29T06:38:51.987Z,72.30
2019-04-29T06:39:42.903Z,72.23
2019-04-29T06:40:35.497Z,72.28
2019-04-29T06:41:24.482Z,72.36
2019-04-29T06:42:15.568Z,72.20
2019-04-29T06:43:05.757Z,72.08
2019-04-29T06:43:56.429Z,71.96
2019-04-29T06:44:49.013Z,71.79
2019-04-29T06:45:38.331Z,71.67
2019-04-29T06:46:28.250Z,71.64
2019-04-29T06:47:18.610Z,71.57
2019-04-29T06:48:09.967Z,71.57
2019-04-29T06:49:10.135Z,71.57
2019-04-29T06:49:52.189Z,71.62
2019-04-29T06:50:43.262Z,71.61
2019-04-29T06:51:34.356Z,71.64
2019-04-29T06:52:25.514Z,71.66
2019-04-29T06:53:21.359Z,71.71
2019-04-29T06:54:06.922Z,72.18
2019-04-29T06:54:57.164Z,72.34
2019-04-29T06:55:47.723Z,72.25
2019-04-29T06:56:38.188Z,72.22
2019-04-29T06:57:28.804Z,72.23
2019-04-29T06:58:19.600Z,72.21
2019-04-29T06:59:12.063Z,72.23
2019-04-29T06:59:59.974Z,72.21
2019-04-29T07:00:51.254Z,72.20
2019-04-29T07:01:41.461Z,72.18
2019-04-29T07:02:31.964Z,72.48
2019-04-29T07:03:25.613Z,72.38
2019-04-29T07:04:13.226Z,72.36
2019-04-29T07:05:04.636Z,72.37
2019-04-29T07:05:55.078Z,72.41
2019-04-29T07:06:56.643Z,72.48
2019-04-29T07:07:36.833Z,72.48
2019-04-29T07:08:26.920Z,72.46
2019-04-29T07:09:17.522Z,72.46
2019-04-29T07:10:08.594Z,72.42
2019-04-29T07:11:01.121Z,72.40
2019-04-29T07:11:51.030Z,72.34
2019-04-29T07:12:42.797Z,72.28
2019-04-29T07:13:33.164Z,72.12
2019-04-29T07:14:24.207Z,72.03
2019-04-29T07:15:14.070Z,71.94
2019-04-29T07:16:04.630Z,71.80
2019-04-29T07:16:55.029Z,71.79
2019-04-29T07:17:45.719Z,71.76
2019-04-29T07:18:40.309Z,72.11
2019-04-29T07:19:26.594Z,72.11
2019-04-29T07:20:17.551Z,72.40
2019-04-29T07:21:11.999Z,72.55
2019-04-29T07:21:58.100Z,72.52
2019-04-29T07:22:49.008Z,72.74
2019-04-29T07:23:39.451Z,73.16
2019-04-29T07:24:30.220Z,73.01
2019-04-29T07:25:24.644Z,72.94
2019-04-29T07:26:12.676Z,72.91
2019-04-29T07:27:04.494Z,72.90
2019-04-29T07:27:54.299Z,72.85
2019-04-29T07:28:48.704Z,72.68
2019-04-29T07:29:38.140Z,72.57
2019-04-29T07:30:29.160Z,72.47
2019-04-29T07:31:17.467Z,72.45
2019-04-29T07:32:09.325Z,72.42
2019-04-29T07:32:59.934Z,72.38
2019-04-29T07:33:53.662Z,72.36
2019-04-29T07:34:40.887Z,72.31
2019-04-29T07:35:31.499Z,72.41
2019-04-29T07:36:23.900Z,72.30
2019-04-29T07:37:13.004Z,72.31
2019-04-29T07:38:04.528Z,72.32
2019-04-29T07:38:56.558Z,72.40
2019-04-29T07:39:44.580Z,72.33
2019-04-29T07:40:38.799Z,72.23
2019-04-29T07:41:25.363Z,72.22
2019-04-29T07:42:15.945Z,72.20
2019-04-29T07:43:07.844Z,72.21
2019-04-29T07:43:57.360Z,72.24
2019-04-29T07:45:06.631Z,72.23
2019-04-29T07:46:22.549Z,72.19
2019-04-29T07:47:13.812Z,72.13
2019-04-29T07:48:06.285Z,72.10
2019-04-29T07:49:01.682Z,72.11
2019-04-29T07:49:50.925Z,72.18
2019-04-29T07:50:37.462Z,72.22
2019-04-29T07:51:28.802Z,72.27
2019-04-29T07:52:18.848Z,72.25
2019-04-29T07:53:08.989Z,72.21
2019-04-29T07:54:00.364Z,72.22
2019-04-29T07:54:56.087Z,72.22
2019-04-29T07:55:43.552Z,72.21
2019-04-29T07:56:37.899Z,72.24
2019-04-29T07:57:24.835Z,72.25
2019-04-29T07:58:16.315Z,72.27
2019-04-29T07:59:06.706Z,72.25
2019-04-29T07:59:57.622Z,72.33
2019-04-29T08:00:49.998Z,72.46
2019-04-29T08:01:38.980Z,72.36
2019-04-29T08:02:29.018Z,72.31
2019-04-29T08:03:20.107Z,72.31
2019-04-29T08:04:11.066Z,72.35
2019-04-29T08:05:01.399Z,72.40
2019-04-29T08:05:52.825Z,72.61
2019-04-29T08:06:44.896Z,72.63
2019-04-29T08:07:34.531Z,72.70
2019-04-29T08:08:25.147Z,72.76
2019-04-29T08:09:15.618Z,73.02
2019-04-29T08:10:22.522Z,73.21
2019-04-29T08:10:56.926Z,73.00
2019-04-29T08:11:47.186Z,72.91
2019-04-29T08:12:38.292Z,72.88
2019-04-29T08:13:29.575Z,72.84
2019-04-29T08:14:19.968Z,72.70
2019-04-29T08:15:10.177Z,72.63
2019-04-29T08:16:00.580Z,72.59
2019-04-29T08:16:50.789Z,72.54
2019-04-29T08:17:41.530Z,72.60
2019-04-29T08:18:32.272Z,72.64
2019-04-29T08:19:24.583Z,72.57
2019-04-29T08:20:12.913Z,72.56
2019-04-29T08:21:04.605Z,72.81
2019-04-29T08:21:55.200Z,72.66
2019-04-29T08:22:46.072Z,72.59
2019-04-29T08:23:41.227Z,72.57
2019-04-29T08:24:27.469Z,72.10
2019-04-29T08:25:21.815Z,72.00
2019-04-29T08:26:09.307Z,71.98
2019-04-29T08:26:59.401Z,71.92
2019-04-29T08:27:50.480Z,71.88
2019-04-29T08:28:40.522Z,71.89
2019-04-29T08:29:35.718Z,71.96
2019-04-29T08:30:23.521Z,71.77
2019-04-29T08:31:16.672Z,71.75
2019-04-29T08:32:05.584Z,71.73
2019-04-29T08:32:56.323Z,71.67
2019-04-29T08:33:48.553Z,71.99
2019-04-29T08:34:40.765Z,71.89
2019-04-29T08:35:28.133Z,71.89
2019-04-29T08:36:19.430Z,71.92
2019-04-29T08:37:10.143Z,72.00
2019-04-29T08:38:00.919Z,72.04
2019-04-29T08:38:51.048Z,72.22
2019-04-29T08:39:41.630Z,72.08
2019-04-29T08:40:34.242Z,72.05
2019-04-29T08:41:28.481Z,72.09
2019-04-29T08:42:14.347Z,72.11
2019-04-29T08:43:25.528Z,72.10
2019-04-29T08:44:35.566Z,71.95
2019-04-29T08:45:34.643Z,71.76
2019-04-29T08:46:27.592Z,71.70
2019-04-29T08:47:23.590Z,72.35
2019-04-29T08:48:12.772Z,72.26
2019-04-29T08:49:06.003Z,72.27
2019-04-29T08:49:53.677Z,72.31
2019-04-29T08:50:44.266Z,72.25
2019-04-29T08:51:34.754Z,72.18
2019-04-29T08:52:25.747Z,72.12
2019-04-29T08:53:16.699Z,72.15
2019-04-29T08:54:07.061Z,72.21
2019-04-29T08:54:57.347Z,72.15
2019-04-29T08:55:48.587Z,72.01
2019-04-29T08:56:42.547Z,71.88
2019-04-29T08:57:31.840Z,71.83
2019-04-29T08:58:20.211Z,71.90
2019-04-29T08:59:11.580Z,71.90
2019-04-29T09:00:02.005Z,71.93
2019-04-29T09:00:55.695Z,72.00
2019-04-29T09:01:44.694Z,72.09
2019-04-29T09:02:35.904Z,72.14
2019-04-29T09:03:39.608Z,72.04
2019-04-29T09:04:17.523Z,71.98
2019-04-29T09:05:11.318Z,72.02
2019-04-29T09:06:05.579Z,72.05
2019-04-29T09:06:49.740Z,72.00
2019-04-29T09:07:41.280Z,71.89
2019-04-29T09:08:32.821Z,71.88
2019-04-29T09:09:29.314Z,72.02
2019-04-29T09:10:12.053Z,72.42
2019-04-29T09:11:03.385Z,72.55
2019-04-29T09:11:54.006Z,72.77
2019-04-29T09:12:44.427Z,72.85
2019-04-29T09:13:34.599Z,73.02
2019-04-29T09:14:25.849Z,73.06
2019-04-29T09:15:16.077Z,73.08
2019-04-29T09:16:07.567Z,73.04
2019-04-29T09:16:58.065Z,73.05
2019-04-29T09:17:48.845Z,73.03
2019-04-29T09:18:39.672Z,72.99
2019-04-29T09:19:30.311Z,72.90
2019-04-29T09:20:21.487Z,72.86
2019-04-29T09:21:11.991Z,72.78
2019-04-29T09:22:03.593Z,72.64
2019-04-29T09:22:56.386Z,72.59
2019-04-29T09:23:47.524Z,72.51
2019-04-29T09:24:38.567Z,72.39
2019-04-29T09:25:42.835Z,72.54
2019-04-29T09:26:45.347Z,72.52
2019-04-29T09:27:40.780Z,72.40
2019-04-29T09:28:28.300Z,72.20
2019-04-29T09:29:32.442Z,72.11
2019-04-29T09:30:24.220Z,72.36
2019-04-29T09:31:14.428Z,72.30
2019-04-29T09:32:04.842Z,72.23
2019-04-29T09:32:55.450Z,72.13
2019-04-29T09:33:49.081Z,72.01
2019-04-29T09:34:37.248Z,71.91
2019-04-29T09:35:28.892Z,71.84
2019-04-29T09:36:19.084Z,71.82
2019-04-29T09:37:09.209Z,71.87
2019-04-29T09:37:59.708Z,71.84
2019-04-29T09:38:50.149Z,71.86
2019-04-29T09:39:43.455Z,71.83
2019-04-29T09:40:33.799Z,71.82
2019-04-29T09:41:35.059Z,71.67
2019-04-29T09:42:31.217Z,71.58
2019-04-29T09:43:32.772Z,71.58
2019-04-29T09:44:48.691Z,71.39
2019-04-29T09:45:47.749Z,71.31
2019-04-29T09:46:38.803Z,71.09
2019-04-29T09:47:29.041Z,71.09
2019-04-29T09:48:19.809Z,71.06
2019-04-29T09:49:10.287Z,71.08
2019-04-29T09:50:00.718Z,71.01
2019-04-29T09:50:51.071Z,70.99
2019-04-29T09:51:41.413Z,70.99
2019-04-29T09:52:31.948Z,70.96
2019-04-29T09:53:23.027Z,71.00
2019-04-29T09:54:14.561Z,70.98
2019-04-29T09:55:05.696Z,70.95
2019-04-29T09:55:54.894Z,70.93
2019-04-29T09:56:44.769Z,70.97
2019-04-29T09:57:35.380Z,71.02
2019-04-29T09:58:26.567Z,70.96
2019-04-29T09:59:28.950Z,71.00
2019-04-29T10:00:25.292Z,71.40
2019-04-29T10:01:33.070Z,71.27
2019-04-29T10:02:31.318Z,71.37
2019-04-29T10:03:29.872Z,71.42
2019-04-29T10:04:55.513Z,71.29
2019-04-29T10:05:45.433Z,71.35
2019-04-29T10:06:37.805Z,71.10
2019-04-29T10:07:28.585Z,71.09
2019-04-29T10:08:18.956Z,70.99
2019-04-29T10:09:09.386Z,70.96
2019-04-29T10:10:02.314Z,70.84
2019-04-29T10:10:52.128Z,70.73
2019-04-29T10:11:42.983Z,70.66
2019-04-29T10:12:33.215Z,70.61
2019-04-29T10:13:23.102Z,70.49
2019-04-29T10:14:13.707Z,70.42
2019-04-29T10:15:04.034Z,70.41
2019-04-29T10:16:16.917Z,70.46
2019-04-29T10:17:24.687Z,70.48
2019-04-29T10:18:25.153Z,70.54
2019-04-29T10:19:51.204Z,70.56
2019-04-29T10:20:53.824Z,70.57
2019-04-29T10:21:44.406Z,70.51
2019-04-29T10:22:35.287Z,70.39
2019-04-29T10:23:26.730Z,70.34
2019-04-29T10:24:18.601Z,70.52
2019-04-29T10:25:09.267Z,70.54
2019-04-29T10:25:59.329Z,70.47
2019-04-29T10:26:50.260Z,70.34
2019-04-29T10:27:40.750Z,70.27
2019-04-29T10:28:30.629Z,70.23
2019-04-29T10:29:21.646Z,70.29
2019-04-29T10:30:13.024Z,70.24
2019-04-29T10:31:05.035Z,70.15
2019-04-29T10:31:55.641Z,70.08
2019-04-29T10:32:46.279Z,70.02
2019-04-29T10:33:36.885Z,69.96
2019-04-29T10:34:31.556Z,69.98
2019-04-29T10:35:18.302Z,70.12
2019-04-29T10:36:09.221Z,70.33
2019-04-29T10:37:01.174Z,70.39
2019-04-29T10:37:51.344Z,70.37
2019-04-29T10:38:44.909Z,70.35
2019-04-29T10:39:55.731Z,70.33
2019-04-29T10:41:08.284Z,70.26
2019-04-29T10:41:59.750Z,70.20
2019-04-29T10:43:11.322Z,70.19
2019-04-29T10:44:29.806Z,70.22
2019-04-29T10:45:28.885Z,69.74
2019-04-29T10:46:37.755Z,69.58
2019-04-29T10:47:36.507Z,69.48
2019-04-29T10:48:30.821Z,69.35
2019-04-29T10:49:28.345Z,69.21
2019-04-29T10:50:24.096Z,69.15
2019-04-29T10:51:14.321Z,69.17
2019-04-29T10:52:05.992Z,69.21
2019-04-29T10:52:56.506Z,69.26
2019-04-29T10:53:51.122Z,69.26
2019-04-29T10:54:38.283Z,69.36
2019-04-29T10:55:30.121Z,69.69
2019-04-29T10:56:19.026Z,69.60
2019-04-29T10:57:14.344Z,69.49
2019-04-29T10:58:01.104Z,69.40
2019-04-29T10:58:52.222Z,69.39
2019-04-29T10:59:45.044Z,69.45
2019-04-29T11:01:34.670Z,69.52
2019-04-29T11:02:36.253Z,69.60
2019-04-29T11:03:26.427Z,69.62
2019-04-29T11:04:16.807Z,69.56
2019-04-29T11:05:59.935Z,69.61
2019-04-29T11:06:37.483Z,69.72
2019-04-29T11:07:31.742Z,70.03
2019-04-29T11:08:43.186Z,69.94
2019-04-29T11:09:50.751Z,70.10
2019-04-29T11:10:36.879Z,70.07
2019-04-29T11:11:28.353Z,70.16
2019-04-29T11:12:19.223Z,70.25
2019-04-29T11:13:10.890Z,70.32
2019-04-29T11:14:01.899Z,70.38
2019-04-29T11:14:52.157Z,70.42
2019-04-29T11:15:44.919Z,70.60
2019-04-29T11:16:45.911Z,70.88
2019-04-29T11:17:24.732Z,70.69
2019-04-29T11:18:18.071Z,70.67
2019-04-29T11:19:05.712Z,70.52
2019-04-29T11:19:55.952Z,70.59